sensor_id;sensor_type;location;lat;lon;timestamp;pressure;altitude;pressure_sealevel;temperature;humidity
79538;BME280;68989;52.032;5.152;2023-04-24T00:01:14;99995.82;;;17.31;54.22
79538;BME280;68989;52.032;5.152;2023-04-24T00:03:41;99991.54;;;17.31;54.16
79538;BME280;68989;52.032;5.152;2023-04-24T00:06:08;99995.84;;;17.31;54.14
79538;BME280;68989;52.032;5.152;2023-04-24T00:08:34;100002.34;;;17.29;54.22
79538;BME280;68989;52.032;5.152;2023-04-24T00:11:01;100000.15;;;17.29;54.27
79538;BME280;68989;52.032;5.152;2023-04-24T00:13:28;100004.63;;;17.29;54.09
79538;BME280;68989;52.032;5.152;2023-04-24T00:15:55;100005.26;;;17.28;54.24
79538;BME280;68989;52.032;5.152;2023-04-24T00:18:22;100005.63;;;17.27;54.13
79538;BME280;68989;52.032;5.152;2023-04-24T00:20:48;100004.57;;;17.26;54.26
79538;BME280;68989;52.032;5.152;2023-04-24T00:23:15;100010.89;;;17.25;54.28
79538;BME280;68989;52.032;5.152;2023-04-24T00:25:42;100009.06;;;17.24;54.22
79538;BME280;68989;52.032;5.152;2023-04-24T00:28:09;100008.81;;;17.23;54.21
79538;BME280;68989;52.032;5.152;2023-04-24T00:30:36;100015.19;;;17.22;54.19
79538;BME280;68989;52.032;5.152;2023-04-24T00:33:03;100012.25;;;17.21;54.21
79538;BME280;68989;52.032;5.152;2023-04-24T00:35:30;100011.62;;;17.20;54.31
79538;BME280;68989;52.032;5.152;2023-04-24T00:37:56;100012.15;;;17.20;54.38
79538;BME280;68989;52.032;5.152;2023-04-24T00:40:23;100013.44;;;17.20;54.22
79538;BME280;68989;52.032;5.152;2023-04-24T00:42:50;100013.24;;;17.20;54.21
79538;BME280;68989;52.032;5.152;2023-04-24T00:45:17;100018.68;;;17.19;54.10
79538;BME280;68989;52.032;5.152;2023-04-24T00:47:45;100017.50;;;17.17;54.30
79538;BME280;68989;52.032;5.152;2023-04-24T00:50:15;100016.71;;;17.16;54.35
79538;BME280;68989;52.032;5.152;2023-04-24T00:52:43;100017.20;;;17.14;54.22
79538;BME280;68989;52.032;5.152;2023-04-24T00:55:10;100016.49;;;17.12;54.22
79538;BME280;68989;52.032;5.152;2023-04-24T00:57:37;100020.70;;;17.10;54.55
79538;BME280;68989;52.032;5.152;2023-04-24T01:00:05;100020.18;;;17.09;54.49
79538;BME280;68989;52.032;5.152;2023-04-24T01:02:32;100017.79;;;17.09;54.48
79538;BME280;68989;52.032;5.152;2023-04-24T01:04:59;100017.54;;;17.08;54.57
79538;BME280;68989;52.032;5.152;2023-04-24T01:07:27;100019.38;;;17.07;54.65
79538;BME280;68989;52.032;5.152;2023-04-24T01:09:55;100021.42;;;17.07;54.73
79538;BME280;68989;52.032;5.152;2023-04-24T01:12:22;100027.81;;;17.07;54.73
79538;BME280;68989;52.032;5.152;2023-04-24T01:14:49;100025.24;;;17.08;54.64
79538;BME280;68989;52.032;5.152;2023-04-24T01:17:16;100029.21;;;17.08;54.67
79538;BME280;68989;52.032;5.152;2023-04-24T01:19:43;100029.09;;;17.09;54.55
79538;BME280;68989;52.032;5.152;2023-04-24T01:22:11;100028.78;;;17.10;54.57
79538;BME280;68989;52.032;5.152;2023-04-24T01:24:39;100028.10;;;17.10;54.52
79538;BME280;68989;52.032;5.152;2023-04-24T01:27:07;100027.59;;;17.11;54.54
79538;BME280;68989;52.032;5.152;2023-04-24T01:29:34;100029.83;;;17.11;54.47
79538;BME280;68989;52.032;5.152;2023-04-24T01:32:02;100029.20;;;17.12;54.49
79538;BME280;68989;52.032;5.152;2023-04-24T01:34:31;100031.04;;;17.12;54.52
79538;BME280;68989;52.032;5.152;2023-04-24T01:36:58;100034.21;;;17.12;54.52
79538;BME280;68989;52.032;5.152;2023-04-24T01:39:26;100032.63;;;17.11;54.51
79538;BME280;68989;52.032;5.152;2023-04-24T01:41:53;100034.67;;;17.11;54.58
79538;BME280;68989;52.032;5.152;2023-04-24T01:44:21;100035.58;;;17.11;54.36
79538;BME280;68989;52.032;5.152;2023-04-24T01:46:49;100033.79;;;17.11;54.57
79538;BME280;68989;52.032;5.152;2023-04-24T01:49:16;100031.14;;;17.11;54.56
79538;BME280;68989;52.032;5.152;2023-04-24T01:51:43;100031.92;;;17.10;54.50
79538;BME280;68989;52.032;5.152;2023-04-24T01:54:10;100030.85;;;17.10;54.51
79538;BME280;68989;52.032;5.152;2023-04-24T01:56:41;100031.63;;;17.10;54.45
79538;BME280;68989;52.032;5.152;2023-04-24T01:59:10;100030.64;;;17.09;54.44
79538;BME280;68989;52.032;5.152;2023-04-24T02:01:39;100029.34;;;17.08;54.54
79538;BME280;68989;52.032;5.152;2023-04-24T02:04:07;100028.54;;;17.07;54.41
79538;BME280;68989;52.032;5.152;2023-04-24T02:06:34;100026.07;;;17.06;54.44
79538;BME280;68989;52.032;5.152;2023-04-24T02:09:01;100023.31;;;17.05;54.37
79538;BME280;68989;52.032;5.152;2023-04-24T02:11:29;100024.80;;;17.04;54.46
79538;BME280;68989;52.032;5.152;2023-04-24T02:13:55;100025.73;;;17.02;54.39
79538;BME280;68989;52.032;5.152;2023-04-24T02:16:22;100028.60;;;17.01;54.47
79538;BME280;68989;52.032;5.152;2023-04-24T02:18:49;100031.32;;;17.00;54.44
79538;BME280;68989;52.032;5.152;2023-04-24T02:21:16;100031.58;;;16.99;54.54
79538;BME280;68989;52.032;5.152;2023-04-24T02:23:43;100032.51;;;16.98;54.53
79538;BME280;68989;52.032;5.152;2023-04-24T02:26:10;100028.85;;;16.97;54.58
79538;BME280;68989;52.032;5.152;2023-04-24T02:28:37;100027.51;;;16.96;54.52
79538;BME280;68989;52.032;5.152;2023-04-24T02:31:04;100030.31;;;16.95;54.43
79538;BME280;68989;52.032;5.152;2023-04-24T02:33:31;100031.59;;;16.95;54.52
79538;BME280;68989;52.032;5.152;2023-04-24T02:35:58;100031.17;;;16.93;54.65
79538;BME280;68989;52.032;5.152;2023-04-24T02:38:25;100028.86;;;16.93;54.51
79538;BME280;68989;52.032;5.152;2023-04-24T02:40:51;100031.23;;;16.92;54.65
79538;BME280;68989;52.032;5.152;2023-04-24T02:43:18;100030.85;;;16.91;54.64
79538;BME280;68989;52.032;5.152;2023-04-24T02:45:45;100032.69;;;16.90;54.65
79538;BME280;68989;52.032;5.152;2023-04-24T02:48:12;100033.53;;;16.90;54.57
79538;BME280;68989;52.032;5.152;2023-04-24T02:50:39;100031.96;;;16.90;54.64
79538;BME280;68989;52.032;5.152;2023-04-24T02:53:06;100029.09;;;16.90;54.60
79538;BME280;68989;52.032;5.152;2023-04-24T02:55:33;100027.26;;;16.89;54.49
79538;BME280;68989;52.032;5.152;2023-04-24T02:58:00;100025.60;;;16.88;54.65
79538;BME280;68989;52.032;5.152;2023-04-24T03:00:26;100026.28;;;16.88;54.64
79538;BME280;68989;52.032;5.152;2023-04-24T03:02:53;100027.64;;;16.87;54.67
79538;BME280;68989;52.032;5.152;2023-04-24T03:05:20;100019.46;;;16.87;54.62
79538;BME280;68989;52.032;5.152;2023-04-24T03:07:47;100017.15;;;16.87;54.65
79538;BME280;68989;52.032;5.152;2023-04-24T03:10:14;100021.91;;;16.86;54.65
79538;BME280;68989;52.032;5.152;2023-04-24T03:12:41;100021.45;;;16.86;54.57
79538;BME280;68989;52.032;5.152;2023-04-24T03:15:09;100020.30;;;16.85;54.58
79538;BME280;68989;52.032;5.152;2023-04-24T03:17:35;100018.19;;;16.84;54.64
79538;BME280;68989;52.032;5.152;2023-04-24T03:20:03;100017.66;;;16.83;54.54
79538;BME280;68989;52.032;5.152;2023-04-24T03:22:30;100018.95;;;16.82;54.64
79538;BME280;68989;52.032;5.152;2023-04-24T03:24:57;100019.83;;;16.81;54.68
79538;BME280;68989;52.032;5.152;2023-04-24T03:27:24;100020.67;;;16.81;54.61
79538;BME280;68989;52.032;5.152;2023-04-24T03:29:50;100021.02;;;16.81;54.61
79538;BME280;68989;52.032;5.152;2023-04-24T03:32:17;100020.47;;;16.80;54.56
79538;BME280;68989;52.032;5.152;2023-04-24T03:34:44;100020.25;;;16.79;54.69
79538;BME280;68989;52.032;5.152;2023-04-24T03:37:11;100020.12;;;16.79;54.65
79538;BME280;68989;52.032;5.152;2023-04-24T03:39:38;100022.46;;;16.78;54.56
79538;BME280;68989;52.032;5.152;2023-04-24T03:42:05;100021.99;;;16.78;54.59
79538;BME280;68989;52.032;5.152;2023-04-24T03:44:32;100017.88;;;16.77;54.62
79538;BME280;68989;52.032;5.152;2023-04-24T03:46:58;100017.79;;;16.76;54.60
79538;BME280;68989;52.032;5.152;2023-04-24T03:49:25;100014.87;;;16.76;54.49
79538;BME280;68989;52.032;5.152;2023-04-24T03:51:52;100014.17;;;16.75;54.59
79538;BME280;68989;52.032;5.152;2023-04-24T03:54:19;100010.85;;;16.74;54.55
79538;BME280;68989;52.032;5.152;2023-04-24T03:56:46;100012.54;;;16.73;54.53
79538;BME280;68989;52.032;5.152;2023-04-24T03:59:13;100013.73;;;16.73;54.38
79538;BME280;68989;52.032;5.152;2023-04-24T04:01:40;100014.10;;;16.71;54.51
79538;BME280;68989;52.032;5.152;2023-04-24T04:04:07;100013.48;;;16.71;54.47
79538;BME280;68989;52.032;5.152;2023-04-24T04:06:33;100014.94;;;16.70;54.45
79538;BME280;68989;52.032;5.152;2023-04-24T04:09:00;100019.91;;;16.69;54.47
79538;BME280;68989;52.032;5.152;2023-04-24T04:11:27;100021.65;;;16.69;54.52
79538;BME280;68989;52.032;5.152;2023-04-24T04:13:54;100026.31;;;16.69;54.49
79538;BME280;68989;52.032;5.152;2023-04-24T04:16:21;100024.46;;;16.67;54.57
79538;BME280;68989;52.032;5.152;2023-04-24T04:18:48;100021.66;;;16.66;54.61
79538;BME280;68989;52.032;5.152;2023-04-24T04:21:15;100023.02;;;16.65;54.64
79538;BME280;68989;52.032;5.152;2023-04-24T04:23:41;100021.27;;;16.64;54.59
79538;BME280;68989;52.032;5.152;2023-04-24T04:26:08;100020.47;;;16.62;54.66
79538;BME280;68989;52.032;5.152;2023-04-24T04:28:35;100020.30;;;16.61;54.61
79538;BME280;68989;52.032;5.152;2023-04-24T04:31:02;100024.12;;;16.59;54.61
79538;BME280;68989;52.032;5.152;2023-04-24T04:33:30;100025.96;;;16.57;54.69
79538;BME280;68989;52.032;5.152;2023-04-24T04:35:57;100028.37;;;16.56;54.74
79538;BME280;68989;52.032;5.152;2023-04-24T04:38:24;100030.31;;;16.55;54.75
79538;BME280;68989;52.032;5.152;2023-04-24T04:40:51;100042.41;;;16.54;54.70
79538;BME280;68989;52.032;5.152;2023-04-24T04:43:18;100054.08;;;16.54;54.76
79538;BME280;68989;52.032;5.152;2023-04-24T04:45:45;100060.60;;;16.53;54.79
79538;BME280;68989;52.032;5.152;2023-04-24T04:48:12;100063.89;;;16.53;54.77
79538;BME280;68989;52.032;5.152;2023-04-24T04:50:39;100070.30;;;16.52;54.85
79538;BME280;68989;52.032;5.152;2023-04-24T04:53:05;100073.57;;;16.52;54.88
79538;BME280;68989;52.032;5.152;2023-04-24T04:55:32;100080.03;;;16.52;54.79
79538;BME280;68989;52.032;5.152;2023-04-24T04:57:59;100082.33;;;16.50;55.18
79538;BME280;68989;52.032;5.152;2023-04-24T05:00:26;100087.10;;;16.50;55.47
79538;BME280;68989;52.032;5.152;2023-04-24T05:02:53;100089.65;;;16.49;55.61
79538;BME280;68989;52.032;5.152;2023-04-24T05:05:20;100095.46;;;16.47;55.55
79538;BME280;68989;52.032;5.152;2023-04-24T05:07:47;100101.00;;;16.47;55.51
79538;BME280;68989;52.032;5.152;2023-04-24T05:10:13;100103.78;;;16.47;55.43
79538;BME280;68989;52.032;5.152;2023-04-24T05:12:40;100106.12;;;16.50;55.24
79538;BME280;68989;52.032;5.152;2023-04-24T05:15:08;100109.75;;;16.48;55.21
79538;BME280;68989;52.032;5.152;2023-04-24T05:17:36;100114.72;;;16.47;55.08
79538;BME280;68989;52.032;5.152;2023-04-24T05:20:03;100124.26;;;16.46;55.08
79538;BME280;68989;52.032;5.152;2023-04-24T05:22:30;100131.07;;;16.44;54.93
79538;BME280;68989;52.032;5.152;2023-04-24T05:24:57;100139.48;;;16.43;55.00
79538;BME280;68989;52.032;5.152;2023-04-24T05:27:25;100148.33;;;16.42;54.92
79538;BME280;68989;52.032;5.152;2023-04-24T05:29:52;100150.08;;;16.41;54.88
79538;BME280;68989;52.032;5.152;2023-04-24T05:32:18;100150.73;;;16.40;54.95
79538;BME280;68989;52.032;5.152;2023-04-24T05:34:45;100157.02;;;16.39;54.90
79538;BME280;68989;52.032;5.152;2023-04-24T05:37:12;100159.74;;;16.38;54.90
79538;BME280;68989;52.032;5.152;2023-04-24T05:39:39;100165.92;;;16.37;54.96
79538;BME280;68989;52.032;5.152;2023-04-24T05:42:06;100172.68;;;16.37;54.94
79538;BME280;68989;52.032;5.152;2023-04-24T05:44:33;100178.01;;;16.36;54.96
79538;BME280;68989;52.032;5.152;2023-04-24T05:47:00;100182.15;;;16.36;54.92
79538;BME280;68989;52.032;5.152;2023-04-24T05:49:26;100187.20;;;16.35;55.03
79538;BME280;68989;52.032;5.152;2023-04-24T05:51:53;100192.44;;;16.35;54.94
79538;BME280;68989;52.032;5.152;2023-04-24T05:54:20;100198.57;;;16.35;54.94
79538;BME280;68989;52.032;5.152;2023-04-24T05:56:47;100203.46;;;16.38;54.88
79538;BME280;68989;52.032;5.152;2023-04-24T05:59:16;100209.50;;;16.36;55.09
79538;BME280;68989;52.032;5.152;2023-04-24T06:01:42;100213.49;;;16.36;55.02
79538;BME280;68989;52.032;5.152;2023-04-24T06:04:09;100218.49;;;16.36;54.95
79538;BME280;68989;52.032;5.152;2023-04-24T06:06:36;100223.76;;;16.36;55.01
79538;BME280;68989;52.032;5.152;2023-04-24T06:09:03;100229.85;;;16.36;55.04
79538;BME280;68989;52.032;5.152;2023-04-24T06:11:30;100231.46;;;16.35;55.03
79538;BME280;68989;52.032;5.152;2023-04-24T06:13:57;100240.42;;;16.34;55.00
79538;BME280;68989;52.032;5.152;2023-04-24T06:16:24;100239.25;;;16.34;55.04
79538;BME280;68989;52.032;5.152;2023-04-24T06:18:50;100254.57;;;16.33;55.12
79538;BME280;68989;52.032;5.152;2023-04-24T06:21:17;100259.51;;;16.30;55.10
79538;BME280;68989;52.032;5.152;2023-04-24T06:23:44;100267.01;;;16.27;55.36
79538;BME280;68989;52.032;5.152;2023-04-24T06:26:12;100269.87;;;16.23;55.18
79538;BME280;68989;52.032;5.152;2023-04-24T06:28:39;100285.02;;;16.20;55.61
79538;BME280;68989;52.032;5.152;2023-04-24T06:31:05;100292.13;;;16.14;55.76
79538;BME280;68989;52.032;5.152;2023-04-24T06:33:33;100307.63;;;16.13;55.74
79538;BME280;68989;52.032;5.152;2023-04-24T06:36:00;100307.29;;;16.13;55.78
79538;BME280;68989;52.032;5.152;2023-04-24T06:38:27;100317.91;;;16.12;55.65
79538;BME280;68989;52.032;5.152;2023-04-24T06:40:55;100326.45;;;16.12;55.72
79538;BME280;68989;52.032;5.152;2023-04-24T06:43:23;100332.19;;;16.12;55.62
79538;BME280;68989;52.032;5.152;2023-04-24T06:45:50;100335.26;;;16.11;55.64
79538;BME280;68989;52.032;5.152;2023-04-24T06:48:17;100349.75;;;16.11;55.68
79538;BME280;68989;52.032;5.152;2023-04-24T06:50:44;100352.34;;;16.11;55.56
79538;BME280;68989;52.032;5.152;2023-04-24T06:53:11;100360.75;;;16.10;55.50
79538;BME280;68989;52.032;5.152;2023-04-24T06:55:38;100367.43;;;16.09;55.37
79538;BME280;68989;52.032;5.152;2023-04-24T06:58:05;100371.34;;;16.07;55.29
79538;BME280;68989;52.032;5.152;2023-04-24T07:00:31;100374.90;;;16.05;55.54
79538;BME280;68989;52.032;5.152;2023-04-24T07:02:58;100378.84;;;16.05;55.41
79538;BME280;68989;52.032;5.152;2023-04-24T07:05:25;100385.24;;;16.05;55.48
79538;BME280;68989;52.032;5.152;2023-04-24T07:07:53;100392.45;;;16.04;55.44
79538;BME280;68989;52.032;5.152;2023-04-24T07:10:19;100394.33;;;16.04;55.34
79538;BME280;68989;52.032;5.152;2023-04-24T07:12:47;100403.22;;;16.03;55.44
79538;BME280;68989;52.032;5.152;2023-04-24T07:15:14;100408.28;;;16.03;55.31
79538;BME280;68989;52.032;5.152;2023-04-24T07:17:41;100415.76;;;16.02;55.34
79538;BME280;68989;52.032;5.152;2023-04-24T07:20:09;100421.92;;;16.01;55.39
79538;BME280;68989;52.032;5.152;2023-04-24T07:22:37;100422.73;;;16.01;55.42
79538;BME280;68989;52.032;5.152;2023-04-24T07:25:04;100436.13;;;16.02;55.19
79538;BME280;68989;52.032;5.152;2023-04-24T07:27:32;100440.40;;;16.02;55.42
79538;BME280;68989;52.032;5.152;2023-04-24T07:29:59;100438.08;;;16.02;55.42
79538;BME280;68989;52.032;5.152;2023-04-24T07:32:26;100444.79;;;16.02;55.35
79538;BME280;68989;52.032;5.152;2023-04-24T07:34:53;100454.59;;;16.02;55.55
79538;BME280;68989;52.032;5.152;2023-04-24T07:37:20;100466.82;;;16.02;55.48
79538;BME280;68989;52.032;5.152;2023-04-24T07:39:47;100466.41;;;16.02;55.59
79538;BME280;68989;52.032;5.152;2023-04-24T07:42:14;100472.41;;;16.03;55.49
79538;BME280;68989;52.032;5.152;2023-04-24T07:44:42;100484.39;;;16.03;55.28
79538;BME280;68989;52.032;5.152;2023-04-24T07:47:09;100476.98;;;16.04;55.40
79538;BME280;68989;52.032;5.152;2023-04-24T07:49:35;100481.29;;;16.02;55.41
79538;BME280;68989;52.032;5.152;2023-04-24T07:52:03;100491.16;;;16.02;55.53
79538;BME280;68989;52.032;5.152;2023-04-24T07:54:30;100491.17;;;16.02;55.51
79538;BME280;68989;52.032;5.152;2023-04-24T07:56:57;100494.71;;;16.02;55.51
79538;BME280;68989;52.032;5.152;2023-04-24T07:59:24;100501.38;;;16.03;55.41
79538;BME280;68989;52.032;5.152;2023-04-24T08:01:50;100508.95;;;16.02;55.67
79538;BME280;68989;52.032;5.152;2023-04-24T08:04:17;100516.99;;;16.02;55.59
79538;BME280;68989;52.032;5.152;2023-04-24T08:06:45;100523.34;;;16.02;55.49
79538;BME280;68989;52.032;5.152;2023-04-24T08:09:13;100531.48;;;16.01;55.46
79538;BME280;68989;52.032;5.152;2023-04-24T08:11:41;100539.37;;;16.00;55.48
79538;BME280;68989;52.032;5.152;2023-04-24T08:14:08;100541.19;;;15.99;55.52
79538;BME280;68989;52.032;5.152;2023-04-24T08:16:36;100549.99;;;16.01;55.48
79538;BME280;68989;52.032;5.152;2023-04-24T08:19:03;100558.77;;;16.01;55.46
79538;BME280;68989;52.032;5.152;2023-04-24T08:21:31;100560.21;;;16.01;55.45
79538;BME280;68989;52.032;5.152;2023-04-24T08:23:58;100568.22;;;15.99;55.28
79538;BME280;68989;52.032;5.152;2023-04-24T08:26:25;100579.13;;;15.99;55.24
79538;BME280;68989;52.032;5.152;2023-04-24T08:28:51;100580.42;;;15.98;54.69
79538;BME280;68989;52.032;5.152;2023-04-24T08:31:19;100585.74;;;15.99;55.09
79538;BME280;68989;52.032;5.152;2023-04-24T08:33:46;100586.98;;;16.01;55.16
79538;BME280;68989;52.032;5.152;2023-04-24T08:36:13;100592.30;;;16.03;54.98
79538;BME280;68989;52.032;5.152;2023-04-24T08:38:42;100596.78;;;16.04;55.00
79538;BME280;68989;52.032;5.152;2023-04-24T08:41:09;100602.86;;;16.09;55.02
79538;BME280;68989;52.032;5.152;2023-04-24T08:43:37;100610.21;;;16.12;55.01
79538;BME280;68989;52.032;5.152;2023-04-24T08:46:05;100619.66;;;16.15;54.84
79538;BME280;68989;52.032;5.152;2023-04-24T08:48:32;100612.14;;;16.18;54.57
79538;BME280;68989;52.032;5.152;2023-04-24T08:50:59;100616.74;;;16.19;54.50
79538;BME280;68989;52.032;5.152;2023-04-24T08:53:27;100625.46;;;16.21;54.52
79538;BME280;68989;52.032;5.152;2023-04-24T08:55:55;100632.30;;;16.22;54.13
79538;BME280;68989;52.032;5.152;2023-04-24T08:58:25;100627.61;;;16.20;54.03
79538;BME280;68989;52.032;5.152;2023-04-24T09:00:53;100631.92;;;16.21;54.17
79538;BME280;68989;52.032;5.152;2023-04-24T09:03:22;100635.74;;;16.25;54.32
79538;BME280;68989;52.032;5.152;2023-04-24T09:05:49;100643.36;;;16.30;54.19
79538;BME280;68989;52.032;5.152;2023-04-24T09:08:19;100649.32;;;16.36;54.06
79538;BME280;68989;52.032;5.152;2023-04-24T09:10:46;100646.73;;;16.42;53.85
79538;BME280;68989;52.032;5.152;2023-04-24T09:13:14;100651.65;;;16.46;53.44
79538;BME280;68989;52.032;5.152;2023-04-24T09:15:42;100655.75;;;16.47;53.25
79538;BME280;68989;52.032;5.152;2023-04-24T09:18:09;100658.88;;;16.49;52.89
79538;BME280;68989;52.032;5.152;2023-04-24T09:20:57;100658.58;;;16.51;52.74
79538;BME280;68989;52.032;5.152;2023-04-24T09:23:26;100661.18;;;16.54;52.85
79538;BME280;68989;52.032;5.152;2023-04-24T09:25:55;100672.22;;;16.59;52.90
79538;BME280;68989;52.032;5.152;2023-04-24T09:28:26;100676.66;;;16.64;52.79
79538;BME280;68989;52.032;5.152;2023-04-24T09:31:03;100676.99;;;16.69;52.70
79538;BME280;68989;52.032;5.152;2023-04-24T09:33:31;100681.80;;;16.73;52.27
79538;BME280;68989;52.032;5.152;2023-04-24T09:35:58;100677.21;;;16.78;51.46
79538;BME280;68989;52.032;5.152;2023-04-24T09:38:31;100692.88;;;16.82;51.39
79538;BME280;68989;52.032;5.152;2023-04-24T09:41:00;100693.37;;;16.86;50.84
79538;BME280;68989;52.032;5.152;2023-04-24T09:43:27;100698.66;;;16.88;50.16
79538;BME280;68989;52.032;5.152;2023-04-24T09:45:56;100707.08;;;16.88;49.80
79538;BME280;68989;52.032;5.152;2023-04-24T09:48:30;100709.51;;;16.86;49.52
79538;BME280;68989;52.032;5.152;2023-04-24T09:50:57;100714.67;;;16.84;49.61
79538;BME280;68989;52.032;5.152;2023-04-24T09:53:24;100710.11;;;16.83;49.73
79538;BME280;68989;52.032;5.152;2023-04-24T09:55:52;100719.15;;;16.82;49.62
79538;BME280;68989;52.032;5.152;2023-04-24T09:58:24;100724.78;;;16.81;49.83
79538;BME280;68989;52.032;5.152;2023-04-24T10:00:53;100723.98;;;16.80;49.88
79538;BME280;68989;52.032;5.152;2023-04-24T10:03:23;100727.40;;;16.80;49.90
79538;BME280;68989;52.032;5.152;2023-04-24T10:05:52;100734.51;;;16.79;49.85
79538;BME280;68989;52.032;5.152;2023-04-24T10:08:19;100741.51;;;16.79;49.71
79538;BME280;68989;52.032;5.152;2023-04-24T10:10:47;100740.47;;;16.76;49.25
79538;BME280;68989;52.032;5.152;2023-04-24T10:13:14;100745.04;;;16.73;49.33
79538;BME280;68989;52.032;5.152;2023-04-24T10:15:42;100747.83;;;16.69;49.29
79538;BME280;68989;52.032;5.152;2023-04-24T10:18:10;100744.60;;;16.68;49.61
79538;BME280;68989;52.032;5.152;2023-04-24T10:20:39;100744.68;;;16.68;49.77
79538;BME280;68989;52.032;5.152;2023-04-24T10:23:07;100744.96;;;16.70;50.07
79538;BME280;68989;52.032;5.152;2023-04-24T10:25:35;100749.03;;;16.73;50.18
79538;BME280;68989;52.032;5.152;2023-04-24T10:28:04;100751.82;;;16.79;50.34
79538;BME280;68989;52.032;5.152;2023-04-24T10:30:32;100763.38;;;16.86;50.30
79538;BME280;68989;52.032;5.152;2023-04-24T10:32:59;100764.84;;;16.91;50.08
79538;BME280;68989;52.032;5.152;2023-04-24T10:35:26;100769.88;;;16.95;49.70
79538;BME280;68989;52.032;5.152;2023-04-24T10:37:56;100774.88;;;16.98;49.59
79538;BME280;68989;52.032;5.152;2023-04-24T10:40:27;100774.96;;;16.98;49.51
79538;BME280;68989;52.032;5.152;2023-04-24T10:42:56;100780.08;;;16.94;49.42
79538;BME280;68989;52.032;5.152;2023-04-24T10:45:24;100769.31;;;16.93;49.90
79538;BME280;68989;52.032;5.152;2023-04-24T10:47:53;100772.34;;;16.94;50.13
79538;BME280;68989;52.032;5.152;2023-04-24T10:50:23;100775.78;;;17.01;50.32
79538;BME280;68989;52.032;5.152;2023-04-24T10:52:49;100783.95;;;17.13;50.53
79538;BME280;68989;52.032;5.152;2023-04-24T10:55:21;100788.70;;;17.25;50.75
79538;BME280;68989;52.032;5.152;2023-04-24T10:58:06;100782.88;;;17.43;50.49
79538;BME280;68989;52.032;5.152;2023-04-24T11:00:32;100779.25;;;17.58;49.32
79538;BME280;68989;52.032;5.152;2023-04-24T11:03:05;100772.44;;;17.72;48.85
79538;BME280;68989;52.032;5.152;2023-04-24T11:05:50;100777.22;;;17.88;49.45
79538;BME280;68989;52.032;5.152;2023-04-24T11:08:24;100780.98;;;18.10;49.06
79538;BME280;68989;52.032;5.152;2023-04-24T11:10:57;100786.61;;;18.26;49.27
79538;BME280;68989;52.032;5.152;2023-04-24T11:13:27;100785.46;;;18.41;48.81
79538;BME280;68989;52.032;5.152;2023-04-24T11:16:28;100783.58;;;18.54;48.09
79538;BME280;68989;52.032;5.152;2023-04-24T11:19:01;100786.94;;;18.68;47.67
79538;BME280;68989;52.032;5.152;2023-04-24T11:21:32;100791.03;;;18.74;46.73
79538;BME280;68989;52.032;5.152;2023-04-24T11:24:23;100799.64;;;18.76;45.89
79538;BME280;68989;52.032;5.152;2023-04-24T11:26:51;100804.52;;;18.69;44.78
79538;BME280;68989;52.032;5.152;2023-04-24T11:29:20;100833.52;;;18.60;44.22
79538;BME280;68989;52.032;5.152;2023-04-24T11:31:47;100826.76;;;18.48;44.74
79538;BME280;68989;52.032;5.152;2023-04-24T11:34:14;100826.77;;;18.37;45.32
79538;BME280;68989;52.032;5.152;2023-04-24T11:36:43;100829.33;;;18.29;45.28
79538;BME280;68989;52.032;5.152;2023-04-24T11:39:10;100832.46;;;18.24;45.48
79538;BME280;68989;52.032;5.152;2023-04-24T11:41:37;100834.61;;;18.20;45.29
79538;BME280;68989;52.032;5.152;2023-04-24T11:44:06;100835.63;;;18.16;45.33
79538;BME280;68989;52.032;5.152;2023-04-24T11:46:34;100844.25;;;18.13;45.57
79538;BME280;68989;52.032;5.152;2023-04-24T11:49:00;100855.13;;;18.10;45.67
79538;BME280;68989;52.032;5.152;2023-04-24T11:51:27;100852.53;;;18.07;45.75
79538;BME280;68989;52.032;5.152;2023-04-24T11:53:55;100858.94;;;18.07;45.80
79538;BME280;68989;52.032;5.152;2023-04-24T11:56:22;100864.11;;;18.06;45.84
79538;BME280;68989;52.032;5.152;2023-04-24T11:58:52;100863.82;;;18.04;45.66
79538;BME280;68989;52.032;5.152;2023-04-24T12:01:19;100867.33;;;18.02;45.77
79538;BME280;68989;52.032;5.152;2023-04-24T12:03:48;100866.37;;;18.00;45.83
79538;BME280;68989;52.032;5.152;2023-04-24T12:06:15;100870.86;;;17.99;45.96
79538;BME280;68989;52.032;5.152;2023-04-24T12:08:46;100873.02;;;17.99;46.23
79538;BME280;68989;52.032;5.152;2023-04-24T12:11:15;100877.37;;;18.00;46.02
79538;BME280;68989;52.032;5.152;2023-04-24T12:13:43;100878.15;;;18.01;45.71
79538;BME280;68989;52.032;5.152;2023-04-24T12:16:11;100884.45;;;18.03;45.26
79538;BME280;68989;52.032;5.152;2023-04-24T12:18:43;100891.77;;;18.08;44.56
79538;BME280;68989;52.032;5.152;2023-04-24T12:21:18;100884.30;;;18.14;44.56
79538;BME280;68989;52.032;5.152;2023-04-24T12:23:46;100895.90;;;18.19;43.98
79538;BME280;68989;52.032;5.152;2023-04-24T12:26:17;100902.13;;;18.22;44.10
79538;BME280;68989;52.032;5.152;2023-04-24T12:28:47;100893.78;;;18.23;44.62
79538;BME280;68989;52.032;5.152;2023-04-24T12:31:16;100903.49;;;18.23;44.46
79538;BME280;68989;52.032;5.152;2023-04-24T12:33:43;100907.23;;;18.23;45.15
79538;BME280;68989;52.032;5.152;2023-04-24T12:36:10;100908.23;;;18.23;44.95
79538;BME280;68989;52.032;5.152;2023-04-24T12:38:38;100912.43;;;18.24;45.51
79538;BME280;68989;52.032;5.152;2023-04-24T12:41:07;100911.81;;;18.25;45.40
79538;BME280;68989;52.032;5.152;2023-04-24T12:43:34;100906.47;;;18.25;45.60
79538;BME280;68989;52.032;5.152;2023-04-24T12:46:01;100916.10;;;18.25;45.25
79538;BME280;68989;52.032;5.152;2023-04-24T12:48:29;100915.54;;;18.25;45.09
79538;BME280;68989;52.032;5.152;2023-04-24T12:50:57;100915.22;;;18.27;44.61
79538;BME280;68989;52.032;5.152;2023-04-24T12:53:24;100916.92;;;18.29;44.57